Tucson, AZ

5:57 AM MST on May 04, 2015 (GMT -0700)
Davis-Monthan Air Force Base | | Change Station
CLOSE
Current Station
Airport
Location: Tucson Davis Monthan,
Elevation: 2703 ft
Nearby Weather Stations

Elev 2703 ft 32.17 °N, 110.88 °W | Updated 59 minutes ago

Clear
Clear
64 °F
Feels Like 64 °F
N
4
Wind Variable Wind from West

Today
High -- | Low -- °F
--% Chance of Precip.
Yesterday
High -- | Low -- °F
Precip. -- in
5:34 AM 7:06 PM
Full, 100% visible
Pressure 29.76 in
Visibility 10.0 miles
Clouds Scattered Clouds 5500 ft
Mostly Cloudy 8000 ft
Dew Point 50 °F
Humidity 61%
Rainfall 0.00 in
Snow Depth Not available.
UV 0 out of 12
Pollen 5.10 out of 12
Air Quality Not available.
Flu Activity Local Activity
METAR KDMA 041158Z AUTO 26003KT 10SM SCT055 BKN080 18/10 A2987 RMK AO2 SLP076 T01780103 10229 20170 55003 $

More Conditions Fewer Conditions

Pressure 29.76 in
Visibility 10.0 miles
Clouds Scattered Clouds 5500 ft
Mostly Cloudy 8000 ft
Dew Point 50 °F
Humidity 61%
Rainfall 0.00 in
Snow Depth Not available.
UV 0 out of 12
Pollen 5.10 out of 12
Air Quality Not available.
Flu Activity Local Activity
METAR KDMA 041158Z AUTO 26003KT 10SM SCT055 BKN080 18/10 A2987 RMK AO2 SLP076 T01780103 10229 20170 55003 $

More Conditions Fewer Conditions

Nepal has a long way to go to dig out and rebuild from a devastating earthquake. We have teamed up with several charities and organizations to make contributing to the relief effort as easy as possible.
How you can help: Portlight Strategies | Red Cross

10-Day Weather Forecast

Almanac

Astronomy

May. 04, 2015 Rise Set
Actual Time
Civil Twilight
Nautical Twilight
Astronomical Twilight
Moon
Length of Visible Light
Length of Day
Tomorrow will be .
, % of the Moon is Illuminated

Today's Extremes

State Highs State Lows

Community

WunderPhotos

Upload Photos

1,818,585 photos uploaded!

WunderBlogs® & News

Nearby

Air Quality

  Air Quality AQ Index Pollutant
Not available.

Snow Depth

Station Depth Elevation

Earthquake Activity

City Distance Mag. Time & Date
Minimum magnitude displayed is 2.5.

Coastal Water Temperatures

Place Temperature

Stations

Nearby Weather Stations

Station Location Temp. Windchill Dew Point Humidity Wind Precip. Elev Updated Type